King Philippos — 9HA3023 — position and weather

sailwx.info

Track history (hours):
 
Tides and Currents Weather Stations Pressure Air Temp Water Temp Dewpoint Dewpoint Depression Visibility Wind Speed Wind Dir Waves Ship Positions

King Philippos

Last reported at 2017-Sep-22 01:59 UTC. Time now 2017-Sep-23 14:39 UTC.
Position S 38°09' E 149°23'.

Length 250 m; draft 12.5 m.

Type: Tanker. MMSI: 229046000.

Date/timePositionNaut miles runAvg speedWind from/ knotsBaromVisibWave heightAir tempDewpointWater temp
2017-Sep-22 01:59S 38°09' E 149°23'612.4
2017-Sep-22 01:30S 38°13' E 149°17'612.4
2017-Sep-22 01:00S 38°16' E 149°11'612.6
2017-Sep-22 00:30S 38°20' E 149°04'712.8
2017-Sep-21 23:56S 38°24' E 148°57'612.9
2017-Sep-21 23:30S 38°28' E 148°51'1812.9
2017-Sep-21 22:07S 38°38' E 148°32'313.0
2017-Sep-21 21:54S 38°39' E 148°29'1612.7
2017-Sep-21 20:36S 38°48' E 148°11'312.9
2017-Sep-21 20:24S 38°48' E 148°08'  
Track history (hours):
 
Tides and Currents Weather Stations Pressure Air Temp Water Temp Dewpoint Dewpoint Depression Visibility Wind Speed Wind Dir Waves Ship Positions

King Philippos

Last reported at 2017-Sep-22 01:59 UTC. Time now 2017-Sep-23 14:39 UTC.
Position S 38°09' E 149°23'.

Length 250 m; draft 12.5 m.

Type: Tanker. MMSI: 229046000.

Date/timePositionNaut miles runAvg speedWind from/ knotsBaromVisibWave heightAir tempDewpointWater temp
2017-Sep-22 01:59S 38°09' E 149°23'612.4
2017-Sep-22 01:30S 38°13' E 149°17'612.4
2017-Sep-22 01:00S 38°16' E 149°11'612.6
2017-Sep-22 00:30S 38°20' E 149°04'712.8
2017-Sep-21 23:56S 38°24' E 148°57'612.9
2017-Sep-21 23:30S 38°28' E 148°51'1812.9
2017-Sep-21 22:07S 38°38' E 148°32'313.0
2017-Sep-21 21:54S 38°39' E 148°29'1612.7
2017-Sep-21 20:36S 38°48' E 148°11'312.9
2017-Sep-21 20:24S 38°48' E 148°08'  

Dump ship's entire track history